createdAt,value
2022-11-28T00:01:24.852Z,99003.66
2022-11-28T00:03:51.899Z,98989.50
2022-11-28T00:06:18.764Z,98974.25
2022-11-28T00:08:45.729Z,98982.34
2022-11-28T00:11:14.810Z,98975.34
2022-11-28T00:13:41.753Z,98984.28
2022-11-28T00:16:12.927Z,98971.09
2022-11-28T00:18:39.345Z,98973.03
2022-11-28T00:21:08.379Z,98963.81
2022-11-28T00:23:35.322Z,98980.66
2022-11-28T00:26:06.802Z,98974.38
2022-11-28T00:28:33.483Z,98967.47
2022-11-28T00:30:59.919Z,98966.50
2022-11-28T00:33:26.465Z,98973.16
2022-11-28T00:35:59.129Z,98965.66
2022-11-28T00:38:25.871Z,98963.94
2022-11-28T00:41:08.248Z,98962.03
2022-11-28T00:43:34.723Z,98948.56
2022-11-28T00:46:01.914Z,98942.28
2022-11-28T00:48:28.520Z,98963.47
2022-11-28T00:50:56.028Z,98956.09
2022-11-28T00:53:22.479Z,98951.72
2022-11-28T00:55:48.882Z,98939.41
2022-11-28T00:58:15.399Z,98940.94
2022-11-28T01:00:41.913Z,98938.41
2022-11-28T01:03:08.416Z,98938.41
2022-11-28T01:05:40.577Z,98933.84
2022-11-28T01:08:07.362Z,98918.34
2022-11-28T01:10:33.851Z,98928.50
2022-11-28T01:13:00.420Z,98932.13
2022-11-28T01:15:27.000Z,98935.16
2022-11-28T01:17:53.385Z,98932.88
2022-11-28T01:20:19.831Z,98939.75
2022-11-28T01:22:47.280Z,98935.25
2022-11-28T01:25:13.687Z,98917.03
2022-11-28T01:27:40.080Z,98919.69
2022-11-28T01:30:07.267Z,98909.50
2022-11-28T01:32:33.886Z,98930.69
2022-11-28T01:35:00.308Z,98927.53
2022-11-28T01:37:29.893Z,98930.31
2022-11-28T01:39:56.356Z,98910.59
2022-11-28T01:42:22.912Z,98910.38
2022-11-28T01:44:49.223Z,98900.09
2022-11-28T01:47:30.437Z,98897.66
2022-11-28T01:49:57.075Z,98883.88
2022-11-28T01:52:23.985Z,98883.16
2022-11-28T01:54:57.965Z,98871.69
2022-11-28T01:57:25.839Z,98867.78
2022-11-28T02:00:11.611Z,98879.41
2022-11-28T02:02:45.611Z,98893.81
2022-11-28T02:05:12.211Z,98884.63
2022-11-28T02:07:39.200Z,98885.94
2022-11-28T02:10:11.723Z,98879.31
2022-11-28T02:13:08.297Z,98872.16
2022-11-28T02:15:56.533Z,98877.59
2022-11-28T02:18:31.069Z,98855.69
2022-11-28T02:21:31.829Z,98865.97
2022-11-28T02:24:10.829Z,98852.94
2022-11-28T02:26:58.431Z,98849.91
2022-11-28T02:29:35.155Z,98846.03
2022-11-28T02:32:11.668Z,98853.19
2022-11-28T02:34:48.883Z,98847.13
2022-11-28T02:37:27.022Z,98851.00
2022-11-28T02:40:21.075Z,98862.72
2022-11-28T02:43:18.684Z,98850.03
2022-11-28T02:45:57.876Z,98841.47
2022-11-28T02:49:09.639Z,98867.78
2022-11-28T02:51:41.494Z,98860.19
2022-11-28T02:54:11.636Z,98849.19
2022-11-28T02:56:38.274Z,98854.03
2022-11-28T02:59:23.296Z,98849.91
2022-11-28T03:01:49.709Z,98854.50
2022-11-28T03:04:31.720Z,98854.97
2022-11-28T03:07:16.985Z,98841.56
2022-11-28T03:10:14.412Z,98837.09
2022-11-28T03:12:52.875Z,98842.03
2022-11-28T03:15:51.149Z,98836.72
2022-11-28T03:18:27.229Z,98833.56
2022-11-28T03:21:05.772Z,98833.09
2022-11-28T03:23:32.087Z,98849.19
2022-11-28T03:26:10.128Z,98843.59
2022-11-28T03:28:44.270Z,98832.84
2022-11-28T03:31:15.721Z,98835.03
2022-11-28T03:33:48.187Z,98809.75
2022-11-28T03:36:20.092Z,98812.31
2022-11-28T03:38:54.350Z,98800.00
2022-11-28T03:41:43.839Z,98791.31
2022-11-28T03:44:18.206Z,98775.47
2022-11-28T03:46:49.519Z,98779.34
2022-11-28T03:49:21.748Z,98777.75
2022-11-28T03:51:54.349Z,98780.41
2022-11-28T03:54:42.737Z,98779.94
2022-11-28T03:57:21.192Z,98781.16
2022-11-28T03:59:51.086Z,98786.81
2022-11-28T04:02:39.931Z,98787.06
2022-11-28T04:05:15.388Z,98795.28
2022-11-28T04:07:51.037Z,98786.31
2022-11-28T04:10:22.762Z,98785.97
2022-11-28T04:12:59.072Z,98786.34
2022-11-28T04:15:33.133Z,98785.13
2022-11-28T04:18:27.069Z,98787.06
2022-11-28T04:21:41.337Z,98787.78
2022-11-28T04:24:13.011Z,98791.78
2022-11-28T04:26:45.701Z,98791.28
2022-11-28T04:29:17.757Z,98780.41
2022-11-28T04:31:46.415Z,98778.13
2022-11-28T04:34:17.704Z,98793.00
2022-11-28T04:36:45.825Z,98788.75
2022-11-28T04:39:17.565Z,98792.38
2022-11-28T04:41:51.262Z,98801.09
2022-11-28T04:44:36.524Z,98801.94
2022-11-28T04:47:04.188Z,98797.22
2022-11-28T04:49:31.361Z,98790.44
2022-11-28T04:52:12.759Z,98798.53
2022-11-28T04:55:02.143Z,98796.13
2022-11-28T04:57:38.135Z,98801.09
2022-11-28T05:00:14.046Z,98774.72
2022-11-28T05:02:43.486Z,98797.09
2022-11-28T05:05:16.544Z,98797.81
2022-11-28T05:07:43.045Z,98805.56
2022-11-28T05:10:12.148Z,98808.47
2022-11-28T05:12:38.566Z,98805.09
2022-11-28T05:15:05.654Z,98806.28
2022-11-28T05:17:32.039Z,98817.50
2022-11-28T05:19:58.577Z,98817.75
2022-11-28T05:22:25.130Z,98803.13
2022-11-28T05:24:52.300Z,98823.06
2022-11-28T05:27:18.701Z,98824.16
2022-11-28T05:29:52.036Z,98809.28
2022-11-28T05:32:18.924Z,98807.72
2022-11-28T05:34:45.247Z,98814.25
2022-11-28T05:37:12.346Z,98807.38
2022-11-28T05:39:38.828Z,98811.09
2022-11-28T05:42:05.350Z,98810.88
2022-11-28T05:44:31.774Z,98805.81
2022-11-28T05:46:58.146Z,98807.47
2022-11-28T05:49:25.419Z,98812.91
2022-11-28T05:51:51.777Z,98807.47
2022-11-28T05:54:18.111Z,98820.78
2022-11-28T05:56:44.438Z,98811.00
2022-11-28T05:59:12.255Z,98812.78
2022-11-28T06:01:38.740Z,98822.34
2022-11-28T06:04:05.225Z,98826.84
2022-11-28T06:06:34.060Z,98824.28
2022-11-28T06:09:00.734Z,98813.28
2022-11-28T06:11:29.942Z,98811.00
2022-11-28T06:13:56.575Z,98816.19
2022-11-28T06:16:26.583Z,98816.06
2022-11-28T06:18:59.008Z,98824.03
2022-11-28T06:21:27.093Z,98817.41
2022-11-28T06:23:53.853Z,98821.38
2022-11-28T06:26:22.602Z,98825.38
2022-11-28T06:28:49.252Z,98823.81
2022-11-28T06:31:18.582Z,98827.53
2022-11-28T06:33:45.613Z,98813.28
2022-11-28T06:36:13.444Z,98822.22
2022-11-28T06:38:40.069Z,98821.53
2022-11-28T06:41:09.802Z,98833.59
2022-11-28T06:43:36.326Z,98833.13
2022-11-28T06:46:02.912Z,98831.41
2022-11-28T06:48:29.351Z,98834.06
2022-11-28T06:51:03.124Z,98843.38
2022-11-28T06:53:31.617Z,98833.34
2022-11-28T06:55:58.564Z,98826.09
2022-11-28T06:58:24.943Z,98823.56
2022-11-28T07:00:51.355Z,98817.63
2022-11-28T07:03:17.761Z,98819.31
2022-11-28T07:05:44.118Z,98817.53
2022-11-28T07:08:10.515Z,98818.25
2022-11-28T07:10:36.917Z,98823.56
2022-11-28T07:13:05.547Z,98818.72
2022-11-28T07:15:32.198Z,98821.03
2022-11-28T07:17:58.562Z,98811.72
2022-11-28T07:20:24.988Z,98812.78
2022-11-28T07:22:51.344Z,98812.19
2022-11-28T07:25:17.938Z,98813.06
2022-11-28T08:49:42.848Z,98826.56
2022-11-28T08:52:09.440Z,98829.97
2022-11-28T08:54:36.237Z,98826.81
2022-11-28T08:57:02.644Z,98831.41
2022-11-28T08:59:29.297Z,98827.53
2022-11-28T09:01:55.717Z,98833.22
2022-11-28T09:04:23.665Z,98822.59
2022-11-28T09:06:50.860Z,98822.00
2022-11-28T09:09:17.546Z,98812.66
2022-11-28T09:11:44.542Z,98808.41
2022-11-28T09:14:11.694Z,98809.25
2022-11-28T09:16:39.560Z,98807.81
2022-11-28T09:19:08.998Z,98819.31
2022-11-28T09:21:36.583Z,98820.25
2022-11-28T09:24:03.203Z,98826.41
2022-11-28T09:26:30.056Z,98831.59
2022-11-28T09:28:56.672Z,98831.31
2022-11-28T09:31:23.317Z,98827.34
2022-11-28T09:33:49.976Z,98834.09
2022-11-28T09:36:19.731Z,98836.41
2022-11-28T09:38:46.759Z,98841.72
2022-11-28T09:41:28.318Z,98837.59
2022-11-28T09:44:03.149Z,98835.44
2022-11-28T09:46:32.768Z,98830.34
2022-11-28T09:49:03.106Z,98827.69
2022-11-28T09:52:02.569Z,98832.84
2022-11-28T09:54:40.862Z,98841.00
2022-11-28T09:57:13.624Z,98837.34
2022-11-28T09:59:40.830Z,98835.41
2022-11-28T10:02:13.383Z,98828.63
2022-11-28T10:04:59.163Z,98830.59
2022-11-28T10:07:51.011Z,98829.09
2022-11-28T10:10:34.386Z,98823.91
2022-11-28T10:13:19.188Z,98826.66
2022-11-28T10:16:12.107Z,98812.47
2022-11-28T10:18:54.567Z,98814.78
2022-11-28T10:21:46.506Z,98822.72
2022-11-28T10:24:18.200Z,98811.88
2022-11-28T10:26:53.913Z,98819.59
2022-11-28T10:29:40.326Z,98815.94
2022-11-28T10:32:10.724Z,98813.28
2022-11-28T10:34:45.400Z,98816.66
2022-11-28T10:37:25.294Z,98816.19
2022-11-28T10:39:51.903Z,98818.63
2022-11-28T10:42:35.672Z,98818.13
2022-11-28T10:45:08.611Z,98815.25
2022-11-28T10:47:43.896Z,98815.81
2022-11-28T10:50:28.055Z,98823.47
2022-11-28T10:53:05.407Z,98822.28
2022-11-28T10:56:05.183Z,98823.47
2022-11-28T10:58:54.915Z,98818.25
2022-11-28T11:01:21.747Z,98825.91
2022-11-28T11:03:49.261Z,98829.66
2022-11-28T11:06:15.642Z,98830.75
2022-11-28T11:08:42.272Z,98828.56
2022-11-28T11:11:33.533Z,98823.72
2022-11-28T11:14:08.617Z,98827.59
2022-11-28T11:16:56.317Z,98820.19
2022-11-28T11:19:43.186Z,98816.81
2022-11-28T11:22:12.429Z,98836.19
2022-11-28T11:24:38.929Z,98828.41
2022-11-28T11:27:18.847Z,98825.34
2022-11-28T11:29:48.147Z,98823.81
2022-11-28T11:32:29.567Z,98827.78
2022-11-28T11:34:58.685Z,98819.41
2022-11-28T11:37:34.985Z,98824.06
2022-11-28T11:40:03.992Z,98817.97
2022-11-28T11:42:32.822Z,98824.16
2022-11-28T11:45:26.089Z,98822.91
2022-11-28T11:47:52.749Z,98824.47
2022-11-28T11:50:22.757Z,98819.06
2022-11-28T11:53:10.421Z,98818.53
2022-11-28T11:56:00.410Z,98822.09
2022-11-28T11:58:35.130Z,98820.84
2022-11-28T12:01:02.934Z,98825.47
2022-11-28T12:03:49.730Z,98827.44
2022-11-28T12:06:23.387Z,98823.78
2022-11-28T12:09:22.264Z,98825.47
2022-11-28T12:12:00.633Z,98826.31
2022-11-28T12:14:34.218Z,98822.81
2022-11-28T12:17:47.833Z,98831.25
2022-11-28T12:20:44.335Z,98831.72
2022-11-28T12:23:33.750Z,98829.75
2022-11-28T12:26:37.783Z,98821.09
2022-11-28T12:29:43.309Z,98830.78
2022-11-28T12:32:28.620Z,98825.03
2022-11-28T12:35:36.062Z,98824.38
2022-11-28T12:38:19.415Z,98817.94
2022-11-28T12:41:27.623Z,98816.13
2022-11-28T12:44:31.343Z,98820.22
2022-11-28T12:47:17.108Z,98818.53
2022-11-28T12:50:03.950Z,98819.78
2022-11-28T12:52:58.431Z,98823.31
2022-11-28T12:55:53.612Z,98814.72
2022-11-28T12:58:43.123Z,98814.44
2022-11-28T13:01:47.196Z,98822.72
2022-11-28T13:04:19.618Z,98817.22
2022-11-28T13:07:13.295Z,98826.50
2022-11-28T13:09:58.275Z,98821.16
2022-11-28T13:12:24.677Z,98811.31
2022-11-28T13:14:58.612Z,98811.88
2022-11-28T13:17:42.620Z,98812.31
2022-11-28T13:20:42.880Z,98818.06
2022-11-28T13:23:34.402Z,98815.31
2022-11-28T13:26:24.642Z,98815.88
2022-11-28T13:28:57.678Z,98815.00
2022-11-28T13:31:48.354Z,98816.66
2022-11-28T13:34:17.498Z,98816.66
2022-11-28T13:40:05.179Z,98820.84
2022-11-28T13:43:10.646Z,98821.13
2022-11-28T13:45:47.030Z,98824.78
2022-11-28T13:49:06.181Z,98822.44
2022-11-28T13:51:32.109Z,98817.34
2022-11-28T13:54:17.429Z,98821.84
2022-11-28T13:57:07.603Z,98825.88
2022-11-28T13:59:34.921Z,98819.97
2022-11-28T14:02:05.442Z,98821.41
2022-11-28T14:04:33.372Z,98818.44
2022-11-28T14:07:04.111Z,98817.88
2022-11-28T14:09:47.528Z,98820.69
2022-11-28T14:12:40.481Z,98820.41
2022-11-28T14:15:31.431Z,98821.13
2022-11-28T14:18:39.068Z,98818.44
2022-11-28T14:21:04.957Z,98825.34
2022-11-28T14:23:47.786Z,98824.78
2022-11-28T14:26:30.673Z,98823.97
2022-11-28T14:28:57.194Z,98835.34
2022-11-28T14:31:31.109Z,98833.69
2022-11-28T14:34:03.413Z,98832.84
2022-11-28T14:36:35.847Z,98834.81
2022-11-28T14:39:04.433Z,98836.53
2022-11-28T14:41:31.246Z,98835.38
2022-11-28T14:44:35.216Z,98840.59
2022-11-28T14:47:13.445Z,98840.19
2022-11-28T14:49:39.880Z,98836.66
2022-11-28T14:52:37.180Z,98842.13
2022-11-28T14:54:56.181Z,98842.28
2022-11-28T14:57:32.627Z,98843.97
2022-11-28T15:00:24.311Z,98843.84
2022-11-28T15:03:14.754Z,98842.00
2022-11-28T15:05:44.132Z,98845.66
2022-11-28T15:08:46.061Z,98838.38
2022-11-28T15:11:26.433Z,98838.38
2022-11-28T15:13:58.780Z,98850.75
2022-11-28T15:16:29.735Z,98849.03
2022-11-28T15:19:04.573Z,98850.75
2022-11-28T15:21:33.163Z,98846.63
2022-11-28T15:24:00.653Z,98849.31
2022-11-28T15:26:29.519Z,98859.16
2022-11-28T15:29:10.431Z,98860.97
2022-11-28T15:31:37.574Z,98863.78
2022-11-28T15:34:08.786Z,98863.91
2022-11-28T15:36:35.765Z,98871.38
2022-11-28T15:39:02.506Z,98873.19
2022-11-28T15:41:29.059Z,98869.00
2022-11-28T15:43:56.626Z,98872.75
2022-11-28T15:46:31.340Z,98873.88
2022-11-28T15:48:58.274Z,98877.25
2022-11-28T15:51:34.099Z,98880.19
2022-11-28T15:54:03.266Z,98884.56
2022-11-28T15:56:29.783Z,98880.06
2022-11-28T15:58:56.376Z,98876.81
2022-11-28T16:01:25.454Z,98882.84
2022-11-28T16:04:02.193Z,98877.91
2022-11-28T16:06:31.850Z,98883.81
2022-11-28T16:09:04.003Z,98893.28
2022-11-28T16:11:32.170Z,98885.84
2022-11-28T16:14:06.236Z,98895.69
2022-11-28T16:16:35.589Z,98894.50
2022-11-28T16:19:05.940Z,98895.75
2022-11-28T16:21:35.811Z,98888.06
2022-11-28T16:24:04.114Z,98893.91
2022-11-28T16:26:34.727Z,98889.00
2022-11-28T16:29:13.724Z,98888.78
2022-11-28T16:31:42.860Z,98896.47
2022-11-28T16:34:13.596Z,98897.72
2022-11-28T16:36:41.376Z,98901.47
2022-11-28T16:39:11.245Z,98905.84
2022-11-28T16:41:40.270Z,98907.13
2022-11-28T16:44:13.118Z,98907.69
2022-11-28T16:46:48.290Z,98913.28
2022-11-28T16:49:37.241Z,98918.06
2022-11-28T16:52:22.080Z,98920.91
2022-11-28T16:54:50.246Z,98929.03
2022-11-28T16:57:19.031Z,98930.72
2022-11-28T16:59:46.950Z,98928.28
2022-11-28T17:02:15.511Z,98933.25
2022-11-28T17:04:42.411Z,98925.94
2022-11-28T17:07:11.576Z,98925.94
2022-11-28T17:09:38.163Z,98927.78
2022-11-28T17:12:15.533Z,98929.63
2022-11-28T17:14:43.990Z,98923.69
2022-11-28T17:17:15.792Z,98929.28
2022-11-28T17:19:43.166Z,98932.66
2022-11-28T17:22:24.792Z,98930.84
2022-11-28T17:24:56.952Z,98925.38
2022-11-28T17:27:23.456Z,98929.16
2022-11-28T17:29:49.852Z,98927.72
2022-11-28T17:32:16.344Z,98923.56
2022-11-28T17:34:43.471Z,98929.63
2022-11-28T17:37:10.363Z,98940.91
2022-11-28T17:39:36.955Z,98942.97
2022-11-28T17:42:04.879Z,98938.31
2022-11-28T17:44:34.578Z,98937.19
2022-11-28T17:47:02.906Z,98938.31
2022-11-28T17:49:30.745Z,98941.84
2022-11-28T17:51:57.412Z,98944.38
2022-11-28T17:54:25.964Z,98932.59
2022-11-28T17:56:53.932Z,98939.63
2022-11-28T17:59:22.692Z,98945.84
2022-11-28T18:01:49.526Z,98938.06
2022-11-28T18:04:16.425Z,98931.34
2022-11-28T18:06:44.335Z,98938.91
2022-11-28T18:09:12.400Z,98931.88
2022-11-28T18:11:39.504Z,98940.88
2022-11-28T18:14:06.319Z,98947.16
2022-11-28T18:16:32.827Z,98947.88
2022-11-28T18:18:59.732Z,98948.31
2022-11-28T18:21:26.722Z,98949.00
2022-11-28T18:23:54.425Z,98954.66
2022-11-28T18:26:23.843Z,98951.53
2022-11-28T18:28:50.862Z,98948.88
2022-11-28T18:31:23.450Z,98952.38
2022-11-28T18:33:50.191Z,98958.56
2022-11-28T18:36:37.584Z,98961.34
2022-11-28T18:39:08.858Z,98961.34
2022-11-28T18:41:35.685Z,98961.50
2022-11-28T18:44:04.568Z,98958.41
2022-11-28T18:46:31.764Z,98965.00
2022-11-28T18:48:58.501Z,98971.19
2022-11-28T18:51:35.097Z,98963.88
2022-11-28T18:54:05.580Z,98970.09
2022-11-28T18:56:32.679Z,98976.97
2022-11-28T18:58:59.375Z,98975.75
2022-11-28T19:01:30.205Z,98988.38
2022-11-28T19:04:06.316Z,98979.06
2022-11-28T19:06:34.863Z,98986.09
2022-11-28T19:09:04.505Z,98974.69
2022-11-28T19:11:32.666Z,98982.13
2022-11-28T19:13:59.353Z,98975.69
2022-11-28T19:16:28.681Z,98980.19
2022-11-28T19:18:56.923Z,98974.00
2022-11-28T19:21:26.278Z,98980.19
2022-11-28T19:23:57.756Z,98984.53
2022-11-28T19:26:25.946Z,98986.25
2022-11-28T19:28:52.875Z,98988.91
2022-11-28T19:31:27.035Z,98990.59
2022-11-28T19:34:00.528Z,98983.75
2022-11-28T19:36:32.849Z,98988.09
2022-11-28T19:39:00.561Z,98991.31
2022-11-28T19:41:28.260Z,98995.78
2022-11-28T19:43:55.153Z,98993.25
2022-11-28T19:46:21.525Z,98990.19
2022-11-28T19:48:48.026Z,98994.81
2022-11-28T19:51:15.757Z,98991.31
2022-11-28T19:53:42.797Z,98995.91
2022-11-28T19:56:15.952Z,98997.88
2022-11-28T19:58:43.247Z,98990.00
2022-11-28T20:01:21.448Z,98999.13
2022-11-28T20:03:48.964Z,98997.28
2022-11-28T20:06:25.085Z,99001.66
2022-11-28T20:08:53.304Z,99009.69
2022-11-28T20:11:22.714Z,99010.06
2022-11-28T20:13:50.036Z,99018.31
2022-11-28T20:16:17.718Z,99013.84
2022-11-28T20:18:45.276Z,99025.34
2022-11-28T20:21:17.547Z,99024.66
2022-11-28T20:23:47.281Z,99023.19
2022-11-28T20:26:15.606Z,99025.75
2022-11-28T20:28:42.953Z,99030.94
2022-11-28T20:31:19.211Z,99024.06
2022-11-28T20:33:45.698Z,99036.53
2022-11-28T20:36:14.188Z,99034.13
2022-11-28T20:38:40.831Z,99031.72
2022-11-28T20:41:10.548Z,99033.81
2022-11-28T20:43:39.353Z,99037.56
2022-11-28T20:46:15.296Z,99036.84
2022-11-28T20:48:42.291Z,99043.16
2022-11-28T20:51:20.889Z,99037.81
2022-11-28T20:53:48.504Z,99044.84
2022-11-28T20:56:17.628Z,99047.78
2022-11-28T20:58:45.297Z,99048.72
2022-11-28T21:01:20.656Z,99041.72
2022-11-28T21:03:47.799Z,99043.41
2022-11-28T21:06:14.684Z,99047.06
2022-11-28T21:08:42.033Z,99049.72
2022-11-28T21:11:25.580Z,99050.44
2022-11-28T21:13:57.992Z,99054.81
2022-11-28T21:16:31.084Z,99047.66
2022-11-28T21:19:01.478Z,99049.19
2022-11-28T21:21:32.691Z,99044.84
2022-11-28T21:24:02.163Z,99045.69
2022-11-28T21:26:30.670Z,99054.81
2022-11-28T21:29:02.159Z,99052.16
2022-11-28T21:31:32.693Z,99054.06
2022-11-28T21:33:59.683Z,99055.91
2022-11-28T21:36:27.803Z,99057.47
2022-11-28T21:38:57.146Z,99056.63
2022-11-28T21:41:27.843Z,99055.78
2022-11-28T21:43:54.891Z,99055.78
2022-11-28T21:46:21.483Z,99063.66
2022-11-28T21:48:47.966Z,99052.84
2022-11-28T21:51:19.781Z,99061.69
2022-11-28T21:53:46.401Z,99064.25
2022-11-28T21:56:13.139Z,99069.59
2022-11-28T21:58:39.806Z,99066.66
2022-11-28T22:01:09.116Z,99062.16
2022-11-28T22:03:36.104Z,99071.00
2022-11-28T22:06:12.525Z,99075.50
2022-11-28T22:08:38.925Z,99072.72
2022-11-28T22:11:08.508Z,99064.00
2022-11-28T22:13:35.670Z,99066.06
2022-11-28T22:16:07.193Z,99067.03
2022-11-28T22:18:34.561Z,99060.88
2022-11-28T22:21:06.481Z,99064.50
2022-11-28T22:23:37.715Z,99070.81
2022-11-28T22:26:06.723Z,99076.16
2022-11-28T22:28:34.609Z,99075.16
2022-11-28T22:31:16.672Z,99073.38
2022-11-28T22:33:44.561Z,99079.53
2022-11-28T22:36:16.727Z,99074.19
2022-11-28T22:38:44.375Z,99072.38
2022-11-28T22:41:15.324Z,99067.16
2022-11-28T22:43:41.818Z,99077.72
2022-11-28T22:46:09.299Z,99070.41
2022-11-28T22:48:36.972Z,99077.84
2022-11-28T22:51:12.512Z,99079.53
2022-11-28T22:53:39.066Z,99081.50
2022-11-28T22:56:07.650Z,99077.97
2022-11-28T22:58:39.421Z,99077.13
2022-11-28T23:01:11.589Z,99085.00
2022-11-28T23:03:38.417Z,99086.81
2022-11-28T23:06:13.725Z,99082.34
2022-11-28T23:08:40.796Z,99081.38
2022-11-28T23:11:19.826Z,99076.88
2022-11-28T23:13:49.592Z,99073.38
2022-11-28T23:16:22.097Z,99081.22
2022-11-28T23:18:51.214Z,99070.53
2022-11-28T23:21:19.363Z,99078.53
2022-11-28T23:23:46.278Z,99076.03
2022-11-28T23:26:18.312Z,99080.50
2022-11-28T23:28:45.205Z,99077.97
2022-11-28T23:31:18.444Z,99082.44
2022-11-28T23:33:45.851Z,99085.84
2022-11-28T23:36:27.316Z,99086.06
2022-11-28T23:38:56.204Z,99085.13
2022-11-28T23:41:23.035Z,99095.06
2022-11-28T23:43:50.090Z,99092.28
2022-11-28T23:46:17.549Z,99092.16
2022-11-28T23:48:45.098Z,99103.53
2022-11-28T23:51:13.281Z,99092.03
2022-11-28T23:53:40.883Z,99105.22
2022-11-28T23:56:13.019Z,99105.22
2022-11-28T23:58:40.321Z,99102.56
